createdAt,value
2018-11-03T00:04:19.837Z,35.03
2018-11-03T00:09:17.284Z,23.93
2018-11-03T00:14:14.727Z,30.73
2018-11-03T00:19:12.432Z,20.20
2018-11-03T00:24:09.883Z,24.27
2018-11-03T00:29:07.688Z,29.43
2018-11-03T00:34:05.612Z,24.07
2018-11-03T00:39:05.270Z,22.63
2018-11-03T00:44:02.725Z,24.70
2018-11-03T00:49:00.216Z,21.60
2018-11-03T00:53:57.668Z,17.50
2018-11-03T00:58:55.292Z,21.87
2018-11-03T01:03:52.744Z,21.23
2018-11-03T01:08:50.332Z,21.07
2018-11-03T01:13:47.774Z,27.13
2018-11-03T01:18:45.216Z,23.37
2018-11-03T01:23:42.708Z,21.40
2018-11-03T01:28:40.125Z,22.10
2018-11-03T01:33:37.672Z,22.33
2018-11-03T01:38:35.113Z,59.10
2018-11-03T01:43:32.549Z,20.90
2018-11-03T01:48:29.988Z,23.70
2018-11-03T01:53:27.432Z,23.63
2018-11-03T01:58:24.860Z,27.80
2018-11-03T02:03:22.349Z,22.47
2018-11-03T02:08:19.749Z,19.50
2018-11-03T02:13:17.212Z,24.23
2018-11-03T02:18:14.642Z,23.30
2018-11-03T02:23:12.135Z,23.30
2018-11-03T02:28:09.550Z,22.00
2018-11-03T02:33:07.062Z,29.10
2018-11-03T02:38:04.517Z,19.80
2018-11-03T02:43:01.956Z,23.77
2018-11-03T02:47:59.404Z,27.33
2018-11-03T02:52:56.847Z,24.63
2018-11-03T02:57:54.288Z,25.20
2018-11-03T03:02:51.765Z,29.27
2018-11-03T03:07:49.375Z,23.10
2018-11-03T03:12:46.800Z,25.90
2018-11-03T03:17:44.249Z,22.03
2018-11-03T03:22:41.944Z,26.80
2018-11-03T03:27:39.640Z,30.50
2018-11-03T03:32:37.207Z,28.43
2018-11-03T03:37:34.644Z,23.57
2018-11-03T03:42:32.092Z,21.27
2018-11-03T03:47:29.532Z,25.57
2018-11-03T03:52:26.977Z,25.17
2018-11-03T03:57:24.389Z,21.60
2018-11-03T04:02:21.836Z,25.80
2018-11-03T04:07:19.273Z,20.80
2018-11-03T04:12:16.708Z,25.50
2018-11-03T04:17:14.145Z,21.93
2018-11-03T04:22:11.585Z,21.87
2018-11-03T04:27:09.015Z,25.30
2018-11-03T04:32:06.561Z,21.37
2018-11-03T04:37:04.036Z,24.30
2018-11-03T04:42:01.483Z,25.00
2018-11-03T04:46:58.920Z,24.90
2018-11-03T04:51:56.345Z,27.00
2018-11-03T04:56:53.781Z,24.13
2018-11-03T05:01:51.231Z,20.47
2018-11-03T05:06:48.664Z,23.67
2018-11-03T05:11:46.098Z,24.17
2018-11-03T05:16:43.530Z,25.23
2018-11-03T05:21:41.766Z,26.40
2018-11-03T05:26:39.213Z,23.10
2018-11-03T05:31:37.345Z,21.80
2018-11-03T05:36:34.784Z,23.97
2018-11-03T05:41:32.224Z,22.23
2018-11-03T05:46:30.862Z,25.60
2018-11-03T05:51:28.371Z,19.20
2018-11-03T05:56:25.856Z,30.30
2018-11-03T06:01:23.309Z,21.00
2018-11-03T06:06:20.811Z,19.20
2018-11-03T06:11:18.261Z,22.63
2018-11-03T06:16:20.853Z,21.63
2018-11-03T06:21:18.364Z,22.60
2018-11-03T06:26:15.836Z,23.00
2018-11-03T06:31:13.330Z,25.43
2018-11-03T06:36:10.800Z,23.80
2018-11-03T06:41:08.260Z,21.60
2018-11-03T06:46:11.515Z,23.03
2018-11-03T06:51:09.036Z,26.10
2018-11-03T06:56:06.475Z,22.67
2018-11-03T07:01:04.021Z,23.87
2018-11-03T07:06:01.472Z,26.67
2018-11-03T07:10:58.940Z,25.07
2018-11-03T07:16:09.028Z,27.57
2018-11-03T07:21:06.606Z,29.30
2018-11-03T07:26:04.248Z,30.47
2018-11-03T07:31:01.775Z,33.33
2018-11-03T07:35:59.245Z,30.40
2018-11-03T07:40:56.843Z,31.57
2018-11-03T07:46:04.353Z,29.63
2018-11-03T07:51:03.032Z,30.03
2018-11-03T07:56:00.530Z,39.77
2018-11-03T08:00:58.089Z,32.27
2018-11-03T08:05:55.624Z,37.43
2018-11-03T08:10:53.133Z,44.67
2018-11-03T08:15:57.317Z,46.03
2018-11-03T08:20:54.809Z,37.43
2018-11-03T08:25:52.310Z,46.20
2018-11-03T08:30:49.985Z,41.00
2018-11-03T08:35:47.459Z,44.47
2018-11-03T08:40:44.982Z,40.50
2018-11-03T08:45:44.456Z,41.27
2018-11-03T08:50:42.048Z,41.13
2018-11-03T08:55:39.528Z,40.43
2018-11-03T09:00:37.012Z,39.70
2018-11-03T09:05:34.517Z,40.43
2018-11-03T09:10:32.024Z,40.03
2018-11-03T09:15:29.579Z,42.47
2018-11-03T09:20:29.151Z,41.00
2018-11-03T09:25:26.831Z,43.17
2018-11-03T09:30:24.424Z,34.70
2018-11-03T09:35:21.910Z,38.50
2018-11-03T09:40:19.460Z,31.43
2018-11-03T09:45:16.960Z,36.03
2018-11-03T09:50:15.152Z,35.40
2018-11-03T09:55:14.773Z,38.03
2018-11-03T10:00:14.264Z,38.33
2018-11-03T10:05:12.823Z,37.60
2018-11-03T10:10:13.550Z,43.80
2018-11-03T10:15:12.245Z,40.07
2018-11-03T10:20:10.141Z,48.30
2018-11-03T10:25:11.282Z,33.53
2018-11-03T10:30:09.984Z,42.50
2018-11-03T10:35:07.968Z,39.57
2018-11-03T10:40:08.281Z,38.23
2018-11-03T10:45:07.182Z,35.80
2018-11-03T10:50:07.554Z,34.07
2018-11-03T10:55:05.784Z,46.13
2018-11-03T11:00:04.236Z,48.37
2018-11-03T11:05:07.424Z,41.13
2018-11-03T11:10:11.040Z,40.47
2018-11-03T11:15:09.142Z,39.83
2018-11-03T11:20:07.720Z,38.43
2018-11-03T11:25:07.056Z,41.53
2018-11-03T11:30:05.102Z,38.20
2018-11-03T11:35:02.563Z,32.60
2018-11-03T11:40:00.053Z,36.17
2018-11-03T11:44:57.526Z,32.90
2018-11-03T11:49:55.092Z,30.00
2018-11-03T11:54:52.653Z,26.53
2018-11-03T11:59:50.068Z,24.23
2018-11-03T12:04:47.512Z,20.77
2018-11-03T12:09:44.961Z,27.40
2018-11-03T12:14:42.440Z,21.73
2018-11-03T12:19:39.892Z,25.40
2018-11-03T12:24:37.348Z,23.03
2018-11-03T12:29:34.805Z,16.70
2018-11-03T12:34:32.352Z,19.73
2018-11-03T12:39:29.839Z,13.03
2018-11-03T12:44:27.276Z,11.30
2018-11-03T12:49:24.774Z,17.03
2018-11-03T12:54:22.265Z,13.57
2018-11-03T12:59:19.768Z,12.23
2018-11-03T13:04:17.198Z,15.07
2018-11-03T13:09:14.643Z,24.07
2018-11-03T13:14:12.255Z,12.90
2018-11-03T13:19:09.727Z,10.27
2018-11-03T13:24:07.171Z,11.93
2018-11-03T13:29:05.120Z,15.37
2018-11-03T13:34:02.548Z,16.20
2018-11-03T13:39:00.000Z,10.37
2018-11-03T13:43:57.449Z,12.27
2018-11-03T13:48:54.915Z,12.87
2018-11-03T13:53:52.366Z,9.10
2018-11-03T13:58:49.801Z,13.73
2018-11-03T14:03:47.229Z,7.77
2018-11-03T14:08:44.682Z,7.60
2018-11-03T14:13:42.123Z,9.03
2018-11-03T14:18:39.756Z,8.83
2018-11-03T14:23:37.233Z,7.87
2018-11-03T14:28:34.683Z,9.60
2018-11-03T14:33:32.158Z,10.47
2018-11-03T14:38:29.601Z,13.00
2018-11-03T14:43:27.057Z,10.47
2018-11-03T14:48:24.504Z,10.33
2018-11-03T14:53:21.989Z,9.53
2018-11-03T14:58:19.498Z,7.83
2018-11-03T15:03:16.947Z,11.03
2018-11-03T15:08:14.399Z,9.30
2018-11-03T15:13:11.866Z,9.03
2018-11-03T15:18:09.305Z,12.87
2018-11-03T15:23:12.724Z,11.40
2018-11-03T15:28:10.228Z,11.13
2018-11-03T15:33:07.734Z,9.33
2018-11-03T15:38:05.292Z,8.97
2018-11-03T15:43:02.730Z,10.07
2018-11-03T15:48:00.295Z,10.30
2018-11-03T15:52:57.755Z,11.33
2018-11-03T15:57:55.233Z,9.60
2018-11-03T16:02:52.699Z,16.13
2018-11-03T16:07:50.145Z,6.53
2018-11-03T16:12:47.688Z,6.10
2018-11-03T16:17:45.099Z,12.17
2018-11-03T16:22:43.370Z,12.60
2018-11-03T16:27:41.909Z,9.37
2018-11-03T16:32:39.683Z,13.30
2018-11-03T16:37:37.298Z,13.53
2018-11-03T16:42:34.841Z,14.27
2018-11-03T16:47:32.741Z,22.50
2018-11-03T16:52:32.787Z,21.30
2018-11-03T16:57:30.332Z,14.67
2018-11-03T17:02:27.785Z,22.30
2018-11-03T17:07:25.351Z,37.67
2018-11-03T17:12:22.906Z,18.07
2018-11-03T17:17:20.505Z,15.47
2018-11-03T17:22:17.977Z,15.30
2018-11-03T17:27:15.416Z,18.40
2018-11-03T17:32:12.860Z,20.13
2018-11-03T17:37:10.333Z,32.93
2018-11-03T17:42:07.812Z,21.87
2018-11-03T17:47:05.429Z,19.10
2018-11-03T17:52:02.892Z,25.33
2018-11-03T17:57:00.559Z,22.40
2018-11-03T18:01:58.351Z,19.30
2018-11-03T18:06:55.792Z,22.00
2018-11-03T18:11:53.270Z,20.87
2018-11-03T18:16:51.941Z,25.67
2018-11-03T18:21:49.369Z,20.77
2018-11-03T18:26:53.064Z,18.30
2018-11-03T18:31:50.635Z,22.67
2018-11-03T18:36:48.128Z,28.93
2018-11-03T18:41:45.675Z,29.27
2018-11-03T18:46:44.850Z,31.97
2018-11-03T18:51:42.424Z,28.67
2018-11-03T18:56:39.885Z,30.53
2018-11-03T19:01:37.340Z,32.43
2018-11-03T19:06:34.785Z,26.83
2018-11-03T19:11:32.245Z,30.27
2018-11-03T19:16:31.181Z,33.87
2018-11-03T19:21:28.676Z,25.90
2018-11-03T19:26:26.161Z,41.20
2018-11-03T19:31:23.636Z,31.43
2018-11-03T19:36:21.073Z,31.63
2018-11-03T19:41:18.562Z,26.30
2018-11-03T19:46:20.186Z,26.37
2018-11-03T19:51:17.707Z,23.93
2018-11-03T19:56:15.157Z,22.77
2018-11-03T20:01:12.685Z,28.87
2018-11-03T20:06:10.156Z,23.67
2018-11-03T20:11:07.613Z,26.57
2018-11-03T20:16:08.427Z,25.77
2018-11-03T20:21:06.071Z,25.90
2018-11-03T20:26:03.573Z,23.80
2018-11-03T20:31:01.042Z,27.07
2018-11-03T20:35:58.548Z,26.50
2018-11-03T20:40:55.973Z,28.80
2018-11-03T20:46:05.153Z,27.73
2018-11-03T20:51:07.672Z,29.53
2018-11-03T20:56:05.597Z,30.07
2018-11-03T21:01:03.368Z,31.07
2018-11-03T21:06:01.076Z,37.47
2018-11-03T21:10:58.524Z,42.20
2018-11-03T21:16:02.407Z,39.60
2018-11-03T21:20:59.900Z,30.30
2018-11-03T21:25:57.429Z,33.80
2018-11-03T21:30:54.859Z,33.27
2018-11-03T21:35:52.332Z,35.23
2018-11-03T21:40:49.765Z,28.87
2018-11-03T21:45:59.852Z,25.77
2018-11-03T21:50:57.418Z,26.07
2018-11-03T21:55:54.943Z,37.10
2018-11-03T22:00:52.325Z,30.00
2018-11-03T22:05:49.959Z,32.37
2018-11-03T22:10:47.407Z,30.23
2018-11-03T22:15:47.665Z,29.07
2018-11-03T22:20:45.177Z,31.67
2018-11-03T22:25:42.611Z,29.87
2018-11-03T22:30:40.050Z,34.03
2018-11-03T22:35:37.481Z,29.67
2018-11-03T22:40:34.921Z,36.03
2018-11-03T22:45:32.783Z,26.20
2018-11-03T22:50:30.217Z,30.93
2018-11-03T22:55:27.639Z,31.07
2018-11-03T23:00:25.172Z,34.23
2018-11-03T23:05:22.593Z,30.77
2018-11-03T23:10:20.029Z,35.27
2018-11-03T23:15:17.425Z,32.40
2018-11-03T23:20:14.867Z,36.97
2018-11-03T23:25:12.299Z,28.60
2018-11-03T23:30:11.068Z,36.47
2018-11-03T23:35:10.381Z,30.70
2018-11-03T23:40:08.808Z,33.40
2018-11-03T23:45:07.376Z,33.00
2018-11-03T23:50:06.265Z,32.23
2018-11-03T23:55:05.089Z,30.00
